»·PEaware :: UAL654 KSFO-KSEA

UAL654 :: KSFO-KSEA

FLIGHT INFORMATION

Flight Status: Arrived
Operator:
United Airlines
More flights by this operator :: More flights under this callsign
Pilot: Rehan R. (23450)
Aircraft: BOEING 777-300
(B773)
More flights by this aircraft type
Origin: KSFO San Francisco Intl
United States
Destination: KSEA Seattle-Tacoma Intl
United States
More flights between these airports :: More routes between these airports
Route: +TRUKN2 DEDHD RBL LMT HAWKZ7
File this flight plan on PilotEdge
Remarks:
Altitude:
(Current/Filed)
31,000ft
Speed:
(Current/Filed)
480kts
Departed: 18-Nov-20 01:24 PM
Arrived: 18-Nov-20 02:56 PM
Distance/Time
Traveled:
590nm/1:32
Distance/Time
To Go:
Arrived

Flight Plot

Page will automatically refresh every two minutes.

Flight plan parsing failed; only flown route is shown


Map Options




Map Legend


Flown Route
Filed Route
Departure Airport
Arrival Airport
Navaid (VOR, NDB)
Fix

Horizontal Profiles

Position Reports

Time Latitude Longitude Heading Altitude Ground
Speed
18-Nov-20 12:51 37.617316 -122.380672 256 26ft 0kts
18-Nov-20 12:52 37.617316 -122.380672 256 26ft 0kts
18-Nov-20 12:53 37.617316 -122.380672 256 26ft 0kts
18-Nov-20 12:54 37.617316 -122.380672 256 26ft 0kts
18-Nov-20 12:55 37.617316 -122.380672 256 26ft 0kts
18-Nov-20 12:56 37.617316 -122.380672 256 26ft 0kts
18-Nov-20 12:57 37.617316 -122.380672 256 26ft 0kts
18-Nov-20 12:58 37.617316 -122.380672 256 26ft 0kts
18-Nov-20 12:59 37.617316 -122.380672 256 26ft 0kts
18-Nov-20 13:00 37.617316 -122.380672 256 26ft 0kts
18-Nov-20 13:01 37.617316 -122.380672 256 26ft 0kts
18-Nov-20 13:02 37.617316 -122.380672 256 26ft 0kts
18-Nov-20 13:03 37.617316 -122.380672 256 26ft 0kts
18-Nov-20 13:04 37.617316 -122.380672 256 26ft 0kts
18-Nov-20 13:05 37.617316 -122.380672 256 26ft 0kts
18-Nov-20 13:06 37.617316 -122.380672 256 26ft 0kts
18-Nov-20 13:07 37.617316 -122.380672 256 26ft 0kts
18-Nov-20 13:08 37.617316 -122.380672 256 26ft 0kts
18-Nov-20 13:09 37.617316 -122.380672 256 26ft 0kts
18-Nov-20 13:10 37.617316 -122.380672 256 26ft 0kts
18-Nov-20 13:11 37.617316 -122.380672 256 26ft 0kts
18-Nov-20 13:12 37.617340 -122.380544 256 26ft 2kts
18-Nov-20 13:13 37.617719 -122.379753 210 27ft 0kts
18-Nov-20 13:14 37.617719 -122.379753 210 26ft 0kts
18-Nov-20 13:15 37.617367 -122.379704 161 26ft 7kts
18-Nov-20 13:16 37.613949 -122.381473 206 26ft 17kts
18-Nov-20 13:17 37.610378 -122.383856 203 26ft 13kts
18-Nov-20 13:18 37.609350 -122.383478 119 26ft 0kts
18-Nov-20 13:19 37.609348 -122.383474 119 26ft 0kts
18-Nov-20 13:20 37.609346 -122.383470 119 26ft 0kts
18-Nov-20 13:21 37.608198 -122.381646 167 26ft 11kts
18-Nov-20 13:22 37.607450 -122.380281 28 26ft 0kts
18-Nov-20 13:23 37.626460 -122.367717 27 107ft 193kts
18-Nov-20 13:24 37.671385 -122.327194 57 3168ft 225kts
18-Nov-20 13:25 37.700668 -122.244729 54 5466ft 283kts
18-Nov-20 13:26 37.771552 -122.206290 5 7328ft 293kts
18-Nov-20 13:27 37.853257 -122.192234 3 9543ft 302kts
18-Nov-20 13:28 37.941612 -122.177819 3 9991ft 353kts
18-Nov-20 13:29 38.043232 -122.160916 4 9965ft 377kts
18-Nov-20 13:30 38.145977 -122.144250 4 9999ft 370kts
18-Nov-20 13:31 38.248038 -122.127342 4 10000ft 370kts
18-Nov-20 13:32 38.350561 -122.113427 357 10027ft 367kts
18-Nov-20 13:33 38.453438 -122.119719 352 11616ft 375kts
18-Nov-20 13:34 38.559463 -122.127964 353 13876ft 387kts
18-Nov-20 13:35 38.668194 -122.135650 353 15923ft 398kts
18-Nov-20 13:36 38.780831 -122.143421 353 17828ft 410kts
18-Nov-20 13:37 38.895871 -122.151388 353 19001ft 418kts
18-Nov-20 13:38 39.012338 -122.159485 353 19622ft 423kts
18-Nov-20 13:39 39.131476 -122.167795 353 21301ft 432kts
18-Nov-20 13:40 39.252636 -122.176276 353 22792ft 441kts
18-Nov-20 13:41 39.376325 -122.184964 353 24160ft 451kts
18-Nov-20 13:42 39.502577 -122.193864 353 25424ft 459kts
18-Nov-20 13:43 39.631868 -122.203012 353 26595ft 467kts
18-Nov-20 13:44 39.762928 -122.212321 353 27668ft 475kts
18-Nov-20 13:45 39.896007 -122.221783 353 28630ft 482kts
18-Nov-20 13:46 40.030877 -122.231459 353 29472ft 488kts
18-Nov-20 13:47 40.166884 -122.221100 6 30527ft 491kts
18-Nov-20 13:48 40.301115 -122.188070 7 31476ft 489kts
18-Nov-20 13:49 40.434788 -122.155196 7 32001ft 487kts
18-Nov-20 13:50 40.567819 -122.123013 7 31996ft 487kts
18-Nov-20 13:51 40.701459 -122.090440 7 31997ft 487kts
18-Nov-20 13:52 40.834519 -122.057857 7 31995ft 487kts
18-Nov-20 13:53 40.967998 -122.025035 7 31997ft 487kts
18-Nov-20 13:54 41.101003 -121.992195 7 31996ft 487kts
18-Nov-20 13:55 41.234957 -121.958983 7 31996ft 487kts
18-Nov-20 13:56 41.368257 -121.925796 7 31997ft 487kts
18-Nov-20 13:57 41.501550 -121.892472 7 31995ft 487kts
18-Nov-20 13:58 41.634127 -121.859188 7 31997ft 487kts
18-Nov-20 13:59 41.767755 -121.825498 7 31997ft 487kts
18-Nov-20 14:00 41.901124 -121.791840 7 31996ft 487kts
18-Nov-20 14:01 42.034405 -121.757888 7 31996ft 487kts
18-Nov-20 14:02 42.167742 -121.734960 353 32001ft 481kts
18-Nov-20 14:03 42.300436 -121.760295 347 31995ft 478kts
18-Nov-20 14:04 42.431583 -121.790840 347 31997ft 478kts
18-Nov-20 14:05 42.562623 -121.820811 347 31997ft 479kts
18-Nov-20 14:06 42.694320 -121.850994 347 31997ft 478kts
18-Nov-20 14:07 42.825559 -121.881259 347 31997ft 478kts
18-Nov-20 14:08 42.956781 -121.911659 347 31997ft 478kts
18-Nov-20 14:09 43.087936 -121.942177 347 31997ft 478kts
18-Nov-20 14:10 43.219720 -121.972975 347 31997ft 478kts
18-Nov-20 14:11 43.350626 -122.003701 347 31997ft 478kts
18-Nov-20 14:12 43.482470 -122.034784 347 31997ft 478kts
18-Nov-20 14:13 43.613125 -122.065723 347 31997ft 478kts
18-Nov-20 14:14 43.744830 -122.097049 347 31997ft 478kts
18-Nov-20 14:15 43.875742 -122.128325 347 31997ft 478kts
18-Nov-20 14:16 44.007402 -122.159921 347 31996ft 478kts
18-Nov-20 14:17 44.138354 -122.191489 347 31996ft 478kts
18-Nov-20 14:18 44.269636 -122.223279 347 31996ft 478kts
18-Nov-20 14:20 44.400693 -122.255159 347 31996ft 478kts
18-Nov-20 14:21 44.531952 -122.287234 347 31996ft 478kts
18-Nov-20 14:22 44.663291 -122.319476 347 31996ft 478kts
18-Nov-20 14:23 44.794311 -122.351787 347 31996ft 478kts
18-Nov-20 14:24 44.925835 -122.384373 347 31997ft 478kts
18-Nov-20 14:25 45.056709 -122.416949 347 31997ft 478kts
18-Nov-20 14:26 45.188095 -122.449806 347 31997ft 478kts
18-Nov-20 14:27 45.318707 -122.482622 347 31997ft 478kts
18-Nov-20 14:28 45.449832 -122.515661 347 31996ft 478kts
18-Nov-20 14:29 45.581346 -122.548991 346 31996ft 478kts
18-Nov-20 14:30 45.711935 -122.582349 346 31996ft 475kts
18-Nov-20 14:31 45.842438 -122.614775 347 31996ft 475kts
18-Nov-20 14:32 45.972744 -122.647133 347 31996ft 475kts
18-Nov-20 14:33 46.102955 -122.679683 347 31775ft 472kts
18-Nov-20 14:37 46.602372 -122.732339 355 24723ft 428kts
18-Nov-20 14:38 46.717569 -122.736524 354 23756ft 398kts
18-Nov-20 14:38 46.806830 -122.716746 26 22516ft 398kts
18-Nov-20 14:39 46.891116 -122.614217 33 21002ft 388kts
18-Nov-20 14:41 46.998940 -122.534247 11 19614ft 355kts
18-Nov-20 14:41 47.076536 -122.502065 9 18511ft 342kts
18-Nov-20 14:43 47.184360 -122.481173 3 16771ft 331kts
18-Nov-20 14:43 47.260206 -122.469331 1 15544ft 325kts
18-Nov-20 14:44 47.348522 -122.455904 1 14342ft 300kts
18-Nov-20 14:45 47.426770 -122.455161 355 12514ft 274kts
18-Nov-20 14:46 47.502218 -122.455182 355 10358ft 265kts
18-Nov-20 14:47 47.575090 -122.454661 355 8255ft 257kts
18-Nov-20 14:48 47.645626 -122.454035 356 6286ft 245kts
18-Nov-20 14:49 47.700000 -122.421319 71 4753ft 229kts
18-Nov-20 14:50 47.683378 -122.339143 146 3913ft 216kts
18-Nov-20 14:51 47.631059 -122.301860 181 3697ft 207kts
18-Nov-20 14:52 47.574871 -122.306787 180 2586ft 195kts
18-Nov-20 14:53 47.521889 -122.307216 180 1584ft 188kts
18-Nov-20 14:54 47.469696 -122.307673 180 583ft 185kts
18-Nov-20 14:55 47.442920 -122.307905 180 446ft 8kts
18-Nov-20 14:56 47.438955 -122.307806 152 446ft 8kts
18-Nov-20 14:57 47.438793 -122.306811 89 446ft 0kts
18-Nov-20 14:58 47.439363 -122.306168 0 446ft 13kts
18-Nov-20 14:59 47.443647 -122.306139 0 446ft 13kts
18-Nov-20 15:00 47.444207 -122.304130 68 446ft 0kts
18-Nov-20 15:01 47.444212 -122.304113 68 446ft 0kts
18-Nov-20 15:02 47.444212 -122.304113 68 446ft 0kts
18-Nov-20 15:03 47.444212 -122.304113 68 446ft 0kts
18-Nov-20 15:04 47.444212 -122.304113 68 446ft 0kts
18-Nov-20 15:05 47.444212 -122.304113 68 446ft 0kts
18-Nov-20 15:06 47.444212 -122.304113 68 446ft 0kts
18-Nov-20 15:07 47.444212 -122.304113 68 446ft 0kts
18-Nov-20 15:08 47.444212 -122.304113 68 446ft 0kts
18-Nov-20 15:09 47.444212 -122.304113 68 446ft 0kts
18-Nov-20 15:10 47.444212 -122.304113 68 446ft 0kts

Navigation Log

Ident Type
Flight plan parsing failed, navigation log unavailable